ADDS TAF Data INFO
IDs: Format: Raw Decoded Include METARs

Data at: 1445 UTC 22 Nov 2017

KGUP 221353Z AUTO 00000KT 10SM CLR M05/M08 A3045 RMK AO2 SLP316 T10501083

KGUP 221121Z 2212/2312 VRB03KT P6SM BKN250
  FM222100 34008KT P6SM SKC
  FM230100 VRB03KT P6SM SKC